sensor_id;sensor_type;location;lat;lon;timestamp;P1;durP1;ratioP1;P2;durP2;ratioP2
19891;SDS011;10108;50.142;8.724;2023-11-19T00:00:38;22.42;;;15.93;;
19891;SDS011;10108;50.142;8.724;2023-11-19T00:03:06;18.48;;;14.95;;
19891;SDS011;10108;50.142;8.724;2023-11-19T00:05:33;19.50;;;15.30;;
19891;SDS011;10108;50.142;8.724;2023-11-19T00:07:59;21.80;;;15.40;;
19891;SDS011;10108;50.142;8.724;2023-11-19T00:10:26;19.73;;;14.77;;
19891;SDS011;10108;50.142;8.724;2023-11-19T00:12:52;18.35;;;14.98;;
19891;SDS011;10108;50.142;8.724;2023-11-19T00:15:18;21.83;;;15.20;;
19891;SDS011;10108;50.142;8.724;2023-11-19T00:17:44;19.83;;;14.85;;
19891;SDS011;10108;50.142;8.724;2023-11-19T00:20:12;19.55;;;14.77;;
19891;SDS011;10108;50.142;8.724;2023-11-19T00:22:45;18.10;;;14.82;;
19891;SDS011;10108;50.142;8.724;2023-11-19T00:25:17;22.77;;;15.23;;
19891;SDS011;10108;50.142;8.724;2023-11-19T00:27:43;21.65;;;15.40;;
19891;SDS011;10108;50.142;8.724;2023-11-19T00:30:12;16.85;;;14.70;;
19891;SDS011;10108;50.142;8.724;2023-11-19T00:32:39;21.15;;;15.95;;
19891;SDS011;10108;50.142;8.724;2023-11-19T00:35:06;20.95;;;15.60;;
19891;SDS011;10108;50.142;8.724;2023-11-19T00:37:33;21.92;;;15.55;;
19891;SDS011;10108;50.142;8.724;2023-11-19T00:39:59;18.85;;;15.63;;
19891;SDS011;10108;50.142;8.724;2023-11-19T00:42:25;20.27;;;15.25;;
19891;SDS011;10108;50.142;8.724;2023-11-19T00:44:52;21.13;;;16.02;;
19891;SDS011;10108;50.142;8.724;2023-11-19T00:47:18;25.02;;;16.88;;
19891;SDS011;10108;50.142;8.724;2023-11-19T00:49:48;23.90;;;17.20;;
19891;SDS011;10108;50.142;8.724;2023-11-19T00:52:14;22.73;;;16.63;;
19891;SDS011;10108;50.142;8.724;2023-11-19T00:54:45;23.95;;;16.83;;
19891;SDS011;10108;50.142;8.724;2023-11-19T00:57:11;19.92;;;15.27;;
19891;SDS011;10108;50.142;8.724;2023-11-19T00:59:37;20.58;;;16.23;;
19891;SDS011;10108;50.142;8.724;2023-11-19T01:02:03;20.15;;;15.55;;
19891;SDS011;10108;50.142;8.724;2023-11-19T01:04:35;20.63;;;15.88;;
19891;SDS011;10108;50.142;8.724;2023-11-19T01:07:02;19.85;;;14.93;;
19891;SDS011;10108;50.142;8.724;2023-11-19T01:09:32;20.67;;;16.10;;
19891;SDS011;10108;50.142;8.724;2023-11-19T01:12:00;19.92;;;15.57;;
19891;SDS011;10108;50.142;8.724;2023-11-19T01:14:27;21.55;;;15.85;;
19891;SDS011;10108;50.142;8.724;2023-11-19T01:16:54;19.85;;;15.35;;
19891;SDS011;10108;50.142;8.724;2023-11-19T01:19:23;23.05;;;15.88;;
19891;SDS011;10108;50.142;8.724;2023-11-19T01:21:52;19.20;;;14.90;;
19891;SDS011;10108;50.142;8.724;2023-11-19T01:24:19;21.88;;;16.48;;
19891;SDS011;10108;50.142;8.724;2023-11-19T01:26:46;22.33;;;15.88;;
19891;SDS011;10108;50.142;8.724;2023-11-19T01:29:12;19.17;;;15.57;;
19891;SDS011;10108;50.142;8.724;2023-11-19T01:31:42;17.38;;;15.35;;
19891;SDS011;10108;50.142;8.724;2023-11-19T01:34:09;19.00;;;15.68;;
19891;SDS011;10108;50.142;8.724;2023-11-19T01:36:37;21.23;;;15.00;;
19891;SDS011;10108;50.142;8.724;2023-11-19T01:39:04;20.38;;;15.60;;
19891;SDS011;10108;50.142;8.724;2023-11-19T01:41:37;19.25;;;14.77;;
19891;SDS011;10108;50.142;8.724;2023-11-19T01:44:06;17.25;;;13.98;;
19891;SDS011;10108;50.142;8.724;2023-11-19T01:46:32;18.67;;;14.70;;
19891;SDS011;10108;50.142;8.724;2023-11-19T01:49:00;20.90;;;15.95;;
19891;SDS011;10108;50.142;8.724;2023-11-19T01:51:27;17.83;;;14.70;;
19891;SDS011;10108;50.142;8.724;2023-11-19T01:53:53;16.52;;;14.20;;
19891;SDS011;10108;50.142;8.724;2023-11-19T01:56:21;17.88;;;14.40;;
19891;SDS011;10108;50.142;8.724;2023-11-19T01:58:47;16.25;;;14.30;;
19891;SDS011;10108;50.142;8.724;2023-11-19T02:01:15;16.23;;;13.40;;
19891;SDS011;10108;50.142;8.724;2023-11-19T02:03:43;16.25;;;13.98;;
19891;SDS011;10108;50.142;8.724;2023-11-19T02:06:09;18.60;;;14.07;;
19891;SDS011;10108;50.142;8.724;2023-11-19T02:08:36;18.05;;;14.00;;
19891;SDS011;10108;50.142;8.724;2023-11-19T02:11:04;16.55;;;13.43;;
19891;SDS011;10108;50.142;8.724;2023-11-19T02:13:32;16.88;;;12.65;;
19891;SDS011;10108;50.142;8.724;2023-11-19T02:15:59;15.02;;;13.45;;
19891;SDS011;10108;50.142;8.724;2023-11-19T02:18:25;17.20;;;13.88;;
19891;SDS011;10108;50.142;8.724;2023-11-19T02:20:56;16.60;;;13.48;;
19891;SDS011;10108;50.142;8.724;2023-11-19T02:23:23;16.20;;;12.77;;
19891;SDS011;10108;50.142;8.724;2023-11-19T02:28:21;15.15;;;12.50;;
19891;SDS011;10108;50.142;8.724;2023-11-19T02:30:47;14.85;;;12.98;;
19891;SDS011;10108;50.142;8.724;2023-11-19T02:33:13;14.70;;;12.10;;
19891;SDS011;10108;50.142;8.724;2023-11-19T02:35:40;16.27;;;12.68;;
19891;SDS011;10108;50.142;8.724;2023-11-19T02:38:06;17.67;;;12.40;;
19891;SDS011;10108;50.142;8.724;2023-11-19T02:40:33;16.60;;;12.45;;
19891;SDS011;10108;50.142;8.724;2023-11-19T02:42:59;16.13;;;12.45;;
19891;SDS011;10108;50.142;8.724;2023-11-19T02:45:25;14.00;;;12.38;;
19891;SDS011;10108;50.142;8.724;2023-11-19T02:47:54;15.93;;;13.07;;
19891;SDS011;10108;50.142;8.724;2023-11-19T02:50:21;15.32;;;12.07;;
19891;SDS011;10108;50.142;8.724;2023-11-19T02:52:53;16.55;;;12.55;;
19891;SDS011;10108;50.142;8.724;2023-11-19T02:55:22;14.60;;;12.23;;
19891;SDS011;10108;50.142;8.724;2023-11-19T02:57:49;14.82;;;12.10;;
19891;SDS011;10108;50.142;8.724;2023-11-19T03:00:19;14.90;;;11.95;;
19891;SDS011;10108;50.142;8.724;2023-11-19T03:02:49;16.65;;;12.48;;
19891;SDS011;10108;50.142;8.724;2023-11-19T03:05:26;13.73;;;11.98;;
19891;SDS011;10108;50.142;8.724;2023-11-19T03:07:55;18.08;;;13.05;;
19891;SDS011;10108;50.142;8.724;2023-11-19T03:10:22;14.77;;;12.70;;
19891;SDS011;10108;50.142;8.724;2023-11-19T03:12:49;16.38;;;11.55;;
19891;SDS011;10108;50.142;8.724;2023-11-19T03:15:15;16.65;;;12.15;;
19891;SDS011;10108;50.142;8.724;2023-11-19T03:17:42;14.35;;;12.65;;
19891;SDS011;10108;50.142;8.724;2023-11-19T03:20:11;13.48;;;12.07;;
19891;SDS011;10108;50.142;8.724;2023-11-19T03:22:42;13.93;;;12.38;;
19891;SDS011;10108;50.142;8.724;2023-11-19T03:25:09;13.85;;;12.30;;
19891;SDS011;10108;50.142;8.724;2023-11-19T03:27:36;14.70;;;12.18;;
19891;SDS011;10108;50.142;8.724;2023-11-19T03:30:07;14.38;;;12.90;;
19891;SDS011;10108;50.142;8.724;2023-11-19T03:32:35;14.88;;;12.50;;
19891;SDS011;10108;50.142;8.724;2023-11-19T03:35:01;15.25;;;13.00;;
19891;SDS011;10108;50.142;8.724;2023-11-19T03:37:29;14.00;;;12.27;;
19891;SDS011;10108;50.142;8.724;2023-11-19T03:39:57;14.45;;;12.45;;
19891;SDS011;10108;50.142;8.724;2023-11-19T03:42:28;14.38;;;12.10;;
19891;SDS011;10108;50.142;8.724;2023-11-19T03:44:57;14.95;;;12.23;;
19891;SDS011;10108;50.142;8.724;2023-11-19T03:47:23;14.85;;;12.45;;
19891;SDS011;10108;50.142;8.724;2023-11-19T03:49:50;13.35;;;11.95;;
19891;SDS011;10108;50.142;8.724;2023-11-19T03:52:17;16.40;;;12.57;;
19891;SDS011;10108;50.142;8.724;2023-11-19T03:54:43;13.60;;;12.20;;
19891;SDS011;10108;50.142;8.724;2023-11-19T03:57:11;13.65;;;12.25;;
19891;SDS011;10108;50.142;8.724;2023-11-19T03:59:38;14.18;;;11.80;;
19891;SDS011;10108;50.142;8.724;2023-11-19T04:02:04;13.35;;;11.98;;
19891;SDS011;10108;50.142;8.724;2023-11-19T04:04:31;14.00;;;12.30;;
19891;SDS011;10108;50.142;8.724;2023-11-19T04:06:59;13.82;;;12.32;;
19891;SDS011;10108;50.142;8.724;2023-11-19T04:09:26;13.38;;;12.00;;
19891;SDS011;10108;50.142;8.724;2023-11-19T04:11:52;13.82;;;11.95;;
19891;SDS011;10108;50.142;8.724;2023-11-19T04:14:18;13.90;;;12.45;;
19891;SDS011;10108;50.142;8.724;2023-11-19T04:16:44;13.82;;;12.38;;
19891;SDS011;10108;50.142;8.724;2023-11-19T04:19:11;13.98;;;12.48;;
19891;SDS011;10108;50.142;8.724;2023-11-19T04:21:39;14.30;;;12.80;;
19891;SDS011;10108;50.142;8.724;2023-11-19T04:24:07;14.82;;;13.23;;
19891;SDS011;10108;50.142;8.724;2023-11-19T04:26:41;15.25;;;13.45;;
19891;SDS011;10108;50.142;8.724;2023-11-19T04:29:14;15.15;;;12.40;;
19891;SDS011;10108;50.142;8.724;2023-11-19T04:31:43;13.55;;;12.25;;
19891;SDS011;10108;50.142;8.724;2023-11-19T04:34:12;15.38;;;11.98;;
19891;SDS011;10108;50.142;8.724;2023-11-19T04:36:38;13.38;;;12.07;;
19891;SDS011;10108;50.142;8.724;2023-11-19T04:39:04;16.48;;;13.05;;
19891;SDS011;10108;50.142;8.724;2023-11-19T04:41:45;14.00;;;12.57;;
19891;SDS011;10108;50.142;8.724;2023-11-19T04:44:13;13.93;;;12.35;;
19891;SDS011;10108;50.142;8.724;2023-11-19T04:46:39;13.93;;;12.23;;
19891;SDS011;10108;50.142;8.724;2023-11-19T04:49:05;13.60;;;12.20;;
19891;SDS011;10108;50.142;8.724;2023-11-19T04:51:31;13.13;;;11.75;;
19891;SDS011;10108;50.142;8.724;2023-11-19T04:54:04;13.45;;;12.05;;
19891;SDS011;10108;50.142;8.724;2023-11-19T04:56:30;13.88;;;12.10;;
19891;SDS011;10108;50.142;8.724;2023-11-19T04:58:56;13.15;;;11.75;;
19891;SDS011;10108;50.142;8.724;2023-11-19T05:01:23;14.27;;;12.77;;
19891;SDS011;10108;50.142;8.724;2023-11-19T05:03:49;13.88;;;12.20;;
19891;SDS011;10108;50.142;8.724;2023-11-19T05:06:16;13.45;;;12.05;;
19891;SDS011;10108;50.142;8.724;2023-11-19T05:08:42;12.80;;;11.52;;
19891;SDS011;10108;50.142;8.724;2023-11-19T05:11:08;15.18;;;12.13;;
19891;SDS011;10108;50.142;8.724;2023-11-19T05:13:37;13.52;;;12.07;;
19891;SDS011;10108;50.142;8.724;2023-11-19T05:16:04;13.15;;;11.85;;
19891;SDS011;10108;50.142;8.724;2023-11-19T05:18:30;13.90;;;12.30;;
19891;SDS011;10108;50.142;8.724;2023-11-19T05:20:56;13.93;;;12.52;;
19891;SDS011;10108;50.142;8.724;2023-11-19T05:23:22;13.55;;;12.15;;
19891;SDS011;10108;50.142;8.724;2023-11-19T05:25:48;13.52;;;12.23;;
19891;SDS011;10108;50.142;8.724;2023-11-19T05:28:14;13.93;;;12.55;;
19891;SDS011;10108;50.142;8.724;2023-11-19T05:30:41;15.20;;;12.48;;
19891;SDS011;10108;50.142;8.724;2023-11-19T05:33:07;13.88;;;12.45;;
19891;SDS011;10108;50.142;8.724;2023-11-19T05:35:34;13.52;;;11.82;;
19891;SDS011;10108;50.142;8.724;2023-11-19T05:38:00;12.85;;;11.55;;
19891;SDS011;10108;50.142;8.724;2023-11-19T05:40:28;12.60;;;11.30;;
19891;SDS011;10108;50.142;8.724;2023-11-19T05:42:54;14.52;;;12.25;;
19891;SDS011;10108;50.142;8.724;2023-11-19T05:45:20;14.90;;;11.50;;
19891;SDS011;10108;50.142;8.724;2023-11-19T05:47:46;13.80;;;11.60;;
19891;SDS011;10108;50.142;8.724;2023-11-19T05:50:12;13.23;;;11.93;;
19891;SDS011;10108;50.142;8.724;2023-11-19T05:52:38;14.23;;;12.73;;
19891;SDS011;10108;50.142;8.724;2023-11-19T05:55:04;13.68;;;11.95;;
19891;SDS011;10108;50.142;8.724;2023-11-19T05:57:35;13.68;;;12.27;;
19891;SDS011;10108;50.142;8.724;2023-11-19T06:00:02;13.35;;;12.00;;
19891;SDS011;10108;50.142;8.724;2023-11-19T06:02:37;13.50;;;12.20;;
19891;SDS011;10108;50.142;8.724;2023-11-19T06:05:04;13.98;;;12.57;;
19891;SDS011;10108;50.142;8.724;2023-11-19T06:07:31;14.00;;;12.50;;
19891;SDS011;10108;50.142;8.724;2023-11-19T06:09:58;13.52;;;12.07;;
19891;SDS011;10108;50.142;8.724;2023-11-19T06:12:24;13.90;;;12.50;;
19891;SDS011;10108;50.142;8.724;2023-11-19T06:14:50;13.70;;;12.18;;
19891;SDS011;10108;50.142;8.724;2023-11-19T06:17:16;14.88;;;13.20;;
19891;SDS011;10108;50.142;8.724;2023-11-19T06:19:43;15.60;;;13.20;;
19891;SDS011;10108;50.142;8.724;2023-11-19T06:22:10;15.98;;;13.43;;
19891;SDS011;10108;50.142;8.724;2023-11-19T06:24:36;16.80;;;13.38;;
19891;SDS011;10108;50.142;8.724;2023-11-19T06:27:03;16.33;;;13.82;;
19891;SDS011;10108;50.142;8.724;2023-11-19T06:29:30;15.63;;;14.02;;
19891;SDS011;10108;50.142;8.724;2023-11-19T06:31:56;15.45;;;13.85;;
19891;SDS011;10108;50.142;8.724;2023-11-19T06:34:22;18.38;;;14.02;;
19891;SDS011;10108;50.142;8.724;2023-11-19T06:36:48;14.70;;;13.20;;
19891;SDS011;10108;50.142;8.724;2023-11-19T06:39:14;13.68;;;12.27;;
19891;SDS011;10108;50.142;8.724;2023-11-19T06:41:44;15.52;;;12.75;;
19891;SDS011;10108;50.142;8.724;2023-11-19T06:44:11;13.95;;;12.50;;
19891;SDS011;10108;50.142;8.724;2023-11-19T06:46:38;16.77;;;12.43;;
19891;SDS011;10108;50.142;8.724;2023-11-19T06:49:04;15.35;;;12.80;;
19891;SDS011;10108;50.142;8.724;2023-11-19T06:51:30;13.80;;;12.40;;
19891;SDS011;10108;50.142;8.724;2023-11-19T06:53:57;14.95;;;12.57;;
19891;SDS011;10108;50.142;8.724;2023-11-19T06:56:23;13.73;;;12.43;;
19891;SDS011;10108;50.142;8.724;2023-11-19T06:58:50;14.50;;;12.80;;
19891;SDS011;10108;50.142;8.724;2023-11-19T07:01:16;14.68;;;13.13;;
19891;SDS011;10108;50.142;8.724;2023-11-19T07:03:44;16.23;;;12.68;;
19891;SDS011;10108;50.142;8.724;2023-11-19T07:06:11;14.43;;;12.93;;
19891;SDS011;10108;50.142;8.724;2023-11-19T07:08:38;15.15;;;12.73;;
19891;SDS011;10108;50.142;8.724;2023-11-19T07:11:06;14.57;;;12.93;;
19891;SDS011;10108;50.142;8.724;2023-11-19T07:13:35;14.05;;;12.65;;
19891;SDS011;10108;50.142;8.724;2023-11-19T07:16:01;13.48;;;12.15;;
19891;SDS011;10108;50.142;8.724;2023-11-19T07:18:28;14.93;;;12.23;;
19891;SDS011;10108;50.142;8.724;2023-11-19T07:20:54;13.90;;;11.93;;
19891;SDS011;10108;50.142;8.724;2023-11-19T07:23:20;14.25;;;12.75;;
19891;SDS011;10108;50.142;8.724;2023-11-19T07:25:47;13.90;;;12.50;;
19891;SDS011;10108;50.142;8.724;2023-11-19T07:28:13;14.32;;;12.18;;
19891;SDS011;10108;50.142;8.724;2023-11-19T07:30:40;13.27;;;11.93;;
19891;SDS011;10108;50.142;8.724;2023-11-19T07:33:06;12.60;;;11.40;;
19891;SDS011;10108;50.142;8.724;2023-11-19T07:35:32;14.05;;;11.13;;
19891;SDS011;10108;50.142;8.724;2023-11-19T07:37:58;12.18;;;10.88;;
19891;SDS011;10108;50.142;8.724;2023-11-19T07:40:24;12.77;;;11.48;;
19891;SDS011;10108;50.142;8.724;2023-11-19T07:42:50;11.90;;;10.70;;
19891;SDS011;10108;50.142;8.724;2023-11-19T07:45:17;12.10;;;10.90;;
19891;SDS011;10108;50.142;8.724;2023-11-19T07:47:43;14.27;;;11.07;;
19891;SDS011;10108;50.142;8.724;2023-11-19T07:50:12;13.18;;;11.10;;
19891;SDS011;10108;50.142;8.724;2023-11-19T07:52:42;14.65;;;11.27;;
19891;SDS011;10108;50.142;8.724;2023-11-19T07:55:08;12.15;;;10.95;;
19891;SDS011;10108;50.142;8.724;2023-11-19T07:57:34;12.65;;;10.98;;
19891;SDS011;10108;50.142;8.724;2023-11-19T08:00:00;12.20;;;10.90;;
19891;SDS011;10108;50.142;8.724;2023-11-19T08:02:27;13.00;;;11.30;;
19891;SDS011;10108;50.142;8.724;2023-11-19T08:04:54;12.90;;;11.50;;
19891;SDS011;10108;50.142;8.724;2023-11-19T08:07:20;12.73;;;11.23;;
19891;SDS011;10108;50.142;8.724;2023-11-19T08:09:47;12.60;;;11.20;;
19891;SDS011;10108;50.142;8.724;2023-11-19T08:12:14;13.43;;;11.38;;
19891;SDS011;10108;50.142;8.724;2023-11-19T08:14:41;12.25;;;10.93;;
19891;SDS011;10108;50.142;8.724;2023-11-19T08:17:07;11.70;;;10.50;;
19891;SDS011;10108;50.142;8.724;2023-11-19T08:19:33;12.63;;;10.80;;
19891;SDS011;10108;50.142;8.724;2023-11-19T08:21:59;11.70;;;10.50;;
19891;SDS011;10108;50.142;8.724;2023-11-19T08:24:25;12.90;;;11.60;;
19891;SDS011;10108;50.142;8.724;2023-11-19T08:26:51;12.05;;;10.85;;
19891;SDS011;10108;50.142;8.724;2023-11-19T08:29:17;12.93;;;11.63;;
19891;SDS011;10108;50.142;8.724;2023-11-19T08:31:44;14.32;;;11.07;;
19891;SDS011;10108;50.142;8.724;2023-11-19T08:34:11;12.68;;;11.20;;
19891;SDS011;10108;50.142;8.724;2023-11-19T08:36:37;12.95;;;11.23;;
19891;SDS011;10108;50.142;8.724;2023-11-19T08:39:03;15.70;;;11.40;;
19891;SDS011;10108;50.142;8.724;2023-11-19T08:41:29;13.20;;;11.05;;
19891;SDS011;10108;50.142;8.724;2023-11-19T08:43:55;12.90;;;11.10;;
19891;SDS011;10108;50.142;8.724;2023-11-19T08:46:22;12.88;;;11.18;;
19891;SDS011;10108;50.142;8.724;2023-11-19T08:48:48;12.77;;;11.48;;
19891;SDS011;10108;50.142;8.724;2023-11-19T08:51:14;12.27;;;10.98;;
19891;SDS011;10108;50.142;8.724;2023-11-19T08:53:40;12.30;;;11.00;;
19891;SDS011;10108;50.142;8.724;2023-11-19T08:56:06;12.63;;;11.30;;
19891;SDS011;10108;50.142;8.724;2023-11-19T08:58:33;14.48;;;10.45;;
19891;SDS011;10108;50.142;8.724;2023-11-19T09:00:59;12.35;;;11.02;;
19891;SDS011;10108;50.142;8.724;2023-11-19T09:03:26;12.88;;;11.25;;
19891;SDS011;10108;50.142;8.724;2023-11-19T09:05:52;13.93;;;11.23;;
19891;SDS011;10108;50.142;8.724;2023-11-19T09:08:18;11.57;;;10.35;;
19891;SDS011;10108;50.142;8.724;2023-11-19T09:10:44;12.18;;;10.88;;
19891;SDS011;10108;50.142;8.724;2023-11-19T09:13:10;12.32;;;10.77;;
19891;SDS011;10108;50.142;8.724;2023-11-19T09:15:36;14.75;;;11.18;;
19891;SDS011;10108;50.142;8.724;2023-11-19T09:18:03;14.80;;;11.55;;
19891;SDS011;10108;50.142;8.724;2023-11-19T09:20:30;14.00;;;11.30;;
19891;SDS011;10108;50.142;8.724;2023-11-19T09:23:03;15.38;;;12.25;;
19891;SDS011;10108;50.142;8.724;2023-11-19T09:25:30;15.63;;;12.35;;
19891;SDS011;10108;50.142;8.724;2023-11-19T09:27:56;17.67;;;12.32;;
19891;SDS011;10108;50.142;8.724;2023-11-19T09:30:23;15.10;;;11.55;;
19891;SDS011;10108;50.142;8.724;2023-11-19T09:32:49;14.85;;;11.85;;
19891;SDS011;10108;50.142;8.724;2023-11-19T09:35:15;15.13;;;11.95;;
19891;SDS011;10108;50.142;8.724;2023-11-19T09:37:42;13.90;;;11.68;;
19891;SDS011;10108;50.142;8.724;2023-11-19T09:40:09;15.07;;;11.40;;
19891;SDS011;10108;50.142;8.724;2023-11-19T09:42:44;11.73;;;10.43;;
19891;SDS011;10108;50.142;8.724;2023-11-19T09:45:12;15.02;;;11.25;;
19891;SDS011;10108;50.142;8.724;2023-11-19T09:47:46;14.20;;;10.70;;
19891;SDS011;10108;50.142;8.724;2023-11-19T09:50:19;12.95;;;10.43;;
19891;SDS011;10108;50.142;8.724;2023-11-19T09:52:48;13.25;;;10.40;;
19891;SDS011;10108;50.142;8.724;2023-11-19T09:55:15;12.02;;;10.00;;
19891;SDS011;10108;50.142;8.724;2023-11-19T09:57:41;13.48;;;9.68;;
19891;SDS011;10108;50.142;8.724;2023-11-19T10:00:09;13.27;;;9.00;;
19891;SDS011;10108;50.142;8.724;2023-11-19T10:02:39;13.02;;;9.15;;
19891;SDS011;10108;50.142;8.724;2023-11-19T10:05:08;15.93;;;9.40;;
19891;SDS011;10108;50.142;8.724;2023-11-19T10:07:35;12.73;;;9.30;;
19891;SDS011;10108;50.142;8.724;2023-11-19T10:10:02;16.45;;;9.50;;
19891;SDS011;10108;50.142;8.724;2023-11-19T10:12:33;12.18;;;9.13;;
19891;SDS011;10108;50.142;8.724;2023-11-19T10:14:59;15.18;;;10.20;;
19891;SDS011;10108;50.142;8.724;2023-11-19T10:17:32;14.70;;;9.30;;
19891;SDS011;10108;50.142;8.724;2023-11-19T10:20:01;11.95;;;8.93;;
19891;SDS011;10108;50.142;8.724;2023-11-19T10:22:29;12.25;;;8.23;;
19891;SDS011;10108;50.142;8.724;2023-11-19T10:24:56;10.98;;;8.45;;
19891;SDS011;10108;50.142;8.724;2023-11-19T10:27:23;12.48;;;8.20;;
19891;SDS011;10108;50.142;8.724;2023-11-19T10:29:51;16.58;;;7.85;;
19891;SDS011;10108;50.142;8.724;2023-11-19T10:32:17;12.98;;;8.40;;
19891;SDS011;10108;50.142;8.724;2023-11-19T10:34:43;13.75;;;7.80;;
19891;SDS011;10108;50.142;8.724;2023-11-19T10:37:09;14.00;;;7.43;;
19891;SDS011;10108;50.142;8.724;2023-11-19T10:39:54;12.95;;;7.60;;
19891;SDS011;10108;50.142;8.724;2023-11-19T10:42:20;14.38;;;7.97;;
19891;SDS011;10108;50.142;8.724;2023-11-19T10:44:47;12.55;;;7.82;;
19891;SDS011;10108;50.142;8.724;2023-11-19T10:47:13;15.30;;;6.93;;
19891;SDS011;10108;50.142;8.724;2023-11-19T10:49:40;10.45;;;6.57;;
19891;SDS011;10108;50.142;8.724;2023-11-19T10:52:08;15.77;;;8.18;;
19891;SDS011;10108;50.142;8.724;2023-11-19T10:54:34;13.57;;;6.78;;
19891;SDS011;10108;50.142;8.724;2023-11-19T10:57:02;13.35;;;6.72;;
19891;SDS011;10108;50.142;8.724;2023-11-19T10:59:30;13.82;;;7.15;;
19891;SDS011;10108;50.142;8.724;2023-11-19T11:01:57;16.65;;;6.95;;
19891;SDS011;10108;50.142;8.724;2023-11-19T11:04:26;16.33;;;7.00;;
19891;SDS011;10108;50.142;8.724;2023-11-19T11:06:57;14.98;;;7.10;;
19891;SDS011;10108;50.142;8.724;2023-11-19T11:09:28;11.88;;;6.55;;
19891;SDS011;10108;50.142;8.724;2023-11-19T11:11:56;13.98;;;6.60;;
19891;SDS011;10108;50.142;8.724;2023-11-19T11:14:22;19.00;;;5.88;;
19891;SDS011;10108;50.142;8.724;2023-11-19T11:16:51;25.63;;;6.57;;
19891;SDS011;10108;50.142;8.724;2023-11-19T11:19:19;12.30;;;5.90;;
19891;SDS011;10108;50.142;8.724;2023-11-19T11:21:47;18.55;;;6.10;;
19891;SDS011;10108;50.142;8.724;2023-11-19T11:36:19;13.10;;;5.30;;
19891;SDS011;10108;50.142;8.724;2023-11-19T11:38:48;11.68;;;5.22;;
19891;SDS011;10108;50.142;8.724;2023-11-19T11:41:19;15.60;;;5.53;;
19891;SDS011;10108;50.142;8.724;2023-11-19T11:43:52;17.42;;;5.30;;
19891;SDS011;10108;50.142;8.724;2023-11-19T11:49:01;19.55;;;5.13;;
19891;SDS011;10108;50.142;8.724;2023-11-19T12:02:07;19.52;;;5.25;;
19891;SDS011;10108;50.142;8.724;2023-11-19T12:04:34;16.40;;;4.32;;
19891;SDS011;10108;50.142;8.724;2023-11-19T12:07:14;16.48;;;4.55;;
19891;SDS011;10108;50.142;8.724;2023-11-19T12:09:45;17.75;;;4.78;;
19891;SDS011;10108;50.142;8.724;2023-11-19T12:12:26;17.25;;;4.63;;
19891;SDS011;10108;50.142;8.724;2023-11-19T12:15:00;21.30;;;4.93;;
19891;SDS011;10108;50.142;8.724;2023-11-19T12:20:00;21.25;;;5.15;;
19891;SDS011;10108;50.142;8.724;2023-11-19T12:22:27;18.08;;;4.45;;
19891;SDS011;10108;50.142;8.724;2023-11-19T12:24:53;15.18;;;4.47;;
19891;SDS011;10108;50.142;8.724;2023-11-19T12:27:20;20.27;;;4.25;;
19891;SDS011;10108;50.142;8.724;2023-11-19T12:29:49;18.17;;;4.03;;
19891;SDS011;10108;50.142;8.724;2023-11-19T12:32:16;16.48;;;4.30;;
19891;SDS011;10108;50.142;8.724;2023-11-19T12:34:42;13.30;;;4.00;;
19891;SDS011;10108;50.142;8.724;2023-11-19T12:37:09;15.68;;;3.90;;
19891;SDS011;10108;50.142;8.724;2023-11-19T12:39:35;14.75;;;3.55;;
19891;SDS011;10108;50.142;8.724;2023-11-19T12:42:01;19.13;;;4.05;;
19891;SDS011;10108;50.142;8.724;2023-11-19T12:44:27;13.57;;;3.42;;
19891;SDS011;10108;50.142;8.724;2023-11-19T12:47:03;21.55;;;3.90;;
19891;SDS011;10108;50.142;8.724;2023-11-19T12:49:34;11.20;;;3.45;;
19891;SDS011;10108;50.142;8.724;2023-11-19T12:52:00;9.90;;;3.10;;
19891;SDS011;10108;50.142;8.724;2023-11-19T12:54:34;10.90;;;2.97;;
19891;SDS011;10108;50.142;8.724;2023-11-19T12:57:01;15.93;;;3.60;;
19891;SDS011;10108;50.142;8.724;2023-11-19T12:59:28;9.40;;;3.33;;
19891;SDS011;10108;50.142;8.724;2023-11-19T13:01:54;16.45;;;3.75;;
19891;SDS011;10108;50.142;8.724;2023-11-19T13:04:22;15.77;;;3.70;;
19891;SDS011;10108;50.142;8.724;2023-11-19T13:06:50;9.20;;;3.10;;
19891;SDS011;10108;50.142;8.724;2023-11-19T13:11:51;12.23;;;3.25;;
19891;SDS011;10108;50.142;8.724;2023-11-19T13:14:18;12.35;;;3.55;;
19891;SDS011;10108;50.142;8.724;2023-11-19T13:16:44;11.88;;;3.35;;
19891;SDS011;10108;50.142;8.724;2023-11-19T13:19:12;9.75;;;2.80;;
19891;SDS011;10108;50.142;8.724;2023-11-19T13:21:39;9.52;;;3.10;;
19891;SDS011;10108;50.142;8.724;2023-11-19T13:24:06;12.23;;;2.95;;
19891;SDS011;10108;50.142;8.724;2023-11-19T13:26:32;13.63;;;3.35;;
19891;SDS011;10108;50.142;8.724;2023-11-19T13:28:58;9.20;;;2.97;;
19891;SDS011;10108;50.142;8.724;2023-11-19T13:31:24;17.70;;;3.40;;
19891;SDS011;10108;50.142;8.724;2023-11-19T13:33:51;10.93;;;3.53;;
19891;SDS011;10108;50.142;8.724;2023-11-19T13:36:17;15.88;;;3.72;;
19891;SDS011;10108;50.142;8.724;2023-11-19T13:38:44;9.55;;;3.40;;
19891;SDS011;10108;50.142;8.724;2023-11-19T13:41:10;7.03;;;3.00;;
19891;SDS011;10108;50.142;8.724;2023-11-19T13:43:37;14.65;;;3.60;;
19891;SDS011;10108;50.142;8.724;2023-11-19T13:46:03;10.88;;;3.33;;
19891;SDS011;10108;50.142;8.724;2023-11-19T13:48:30;12.45;;;2.90;;
19891;SDS011;10108;50.142;8.724;2023-11-19T13:50:56;8.80;;;2.88;;
19891;SDS011;10108;50.142;8.724;2023-11-19T13:53:22;11.75;;;3.13;;
19891;SDS011;10108;50.142;8.724;2023-11-19T13:55:51;13.88;;;3.58;;
19891;SDS011;10108;50.142;8.724;2023-11-19T13:58:18;11.13;;;3.10;;
19891;SDS011;10108;50.142;8.724;2023-11-19T14:00:44;8.38;;;2.80;;
19891;SDS011;10108;50.142;8.724;2023-11-19T14:03:10;12.45;;;3.20;;
19891;SDS011;10108;50.142;8.724;2023-11-19T14:05:37;13.65;;;3.30;;
19891;SDS011;10108;50.142;8.724;2023-11-19T14:08:04;11.98;;;3.20;;
19891;SDS011;10108;50.142;8.724;2023-11-19T14:10:39;13.98;;;3.40;;
19891;SDS011;10108;50.142;8.724;2023-11-19T14:13:06;13.60;;;3.25;;
19891;SDS011;10108;50.142;8.724;2023-11-19T14:15:33;13.43;;;3.00;;
19891;SDS011;10108;50.142;8.724;2023-11-19T14:17:59;13.95;;;3.10;;
19891;SDS011;10108;50.142;8.724;2023-11-19T14:20:25;9.95;;;2.83;;
19891;SDS011;10108;50.142;8.724;2023-11-19T14:22:51;13.25;;;3.33;;
19891;SDS011;10108;50.142;8.724;2023-11-19T14:25:18;12.73;;;3.03;;
19891;SDS011;10108;50.142;8.724;2023-11-19T14:27:44;15.88;;;3.55;;
19891;SDS011;10108;50.142;8.724;2023-11-19T14:30:14;15.40;;;3.40;;
19891;SDS011;10108;50.142;8.724;2023-11-19T14:32:40;13.48;;;3.17;;
19891;SDS011;10108;50.142;8.724;2023-11-19T14:35:11;14.13;;;3.45;;
19891;SDS011;10108;50.142;8.724;2023-11-19T14:37:37;10.40;;;2.88;;
19891;SDS011;10108;50.142;8.724;2023-11-19T14:40:04;9.98;;;2.97;;
19891;SDS011;10108;50.142;8.724;2023-11-19T14:42:31;10.60;;;2.88;;
19891;SDS011;10108;50.142;8.724;2023-11-19T14:44:58;17.90;;;3.58;;
19891;SDS011;10108;50.142;8.724;2023-11-19T14:47:24;8.73;;;2.65;;
19891;SDS011;10108;50.142;8.724;2023-11-19T14:49:50;13.73;;;3.30;;
19891;SDS011;10108;50.142;8.724;2023-11-19T14:52:17;10.13;;;2.72;;
19891;SDS011;10108;50.142;8.724;2023-11-19T14:54:43;12.80;;;3.45;;
19891;SDS011;10108;50.142;8.724;2023-11-19T14:57:09;12.07;;;3.03;;
19891;SDS011;10108;50.142;8.724;2023-11-19T14:59:35;12.52;;;3.00;;